sensor_id;sensor_type;location;lat;lon;timestamp;P1;durP1;ratioP1;P2;durP2;ratioP2
21868;SDS011;11099;41.564;23.296;2023-04-25T00:01:16;4.57;;;4.15;;
21868;SDS011;11099;41.564;23.296;2023-04-25T00:03:42;4.47;;;4.18;;
21868;SDS011;11099;41.564;23.296;2023-04-25T00:06:07;4.35;;;3.97;;
21868;SDS011;11099;41.564;23.296;2023-04-25T00:08:33;3.90;;;3.60;;
21868;SDS011;11099;41.564;23.296;2023-04-25T00:11:01;4.55;;;4.15;;
21868;SDS011;11099;41.564;23.296;2023-04-25T00:13:26;9.85;;;4.32;;
21868;SDS011;11099;41.564;23.296;2023-04-25T00:15:52;5.57;;;4.57;;
21868;SDS011;11099;41.564;23.296;2023-04-25T00:18:25;3.75;;;3.50;;
21868;SDS011;11099;41.564;23.296;2023-04-25T00:20:54;4.00;;;3.70;;
21868;SDS011;11099;41.564;23.296;2023-04-25T00:23:20;4.57;;;4.25;;
21868;SDS011;11099;41.564;23.296;2023-04-25T00:25:48;4.10;;;3.70;;
21868;SDS011;11099;41.564;23.296;2023-04-25T00:28:15;3.97;;;3.58;;
21868;SDS011;11099;41.564;23.296;2023-04-25T00:30:41;4.15;;;3.85;;
21868;SDS011;11099;41.564;23.296;2023-04-25T00:33:07;3.85;;;3.55;;
21868;SDS011;11099;41.564;23.296;2023-04-25T00:35:33;4.57;;;4.18;;
21868;SDS011;11099;41.564;23.296;2023-04-25T00:37:59;4.30;;;3.90;;
21868;SDS011;11099;41.564;23.296;2023-04-25T00:40:25;5.35;;;4.95;;
21868;SDS011;11099;41.564;23.296;2023-04-25T00:42:51;5.72;;;5.22;;
21868;SDS011;11099;41.564;23.296;2023-04-25T00:45:18;6.20;;;5.60;;
21868;SDS011;11099;41.564;23.296;2023-04-25T00:47:43;6.07;;;5.43;;
21868;SDS011;11099;41.564;23.296;2023-04-25T00:50:10;5.82;;;5.32;;
21868;SDS011;11099;41.564;23.296;2023-04-25T00:52:40;5.70;;;5.20;;
21868;SDS011;11099;41.564;23.296;2023-04-25T00:55:08;6.43;;;5.45;;
21868;SDS011;11099;41.564;23.296;2023-04-25T00:57:34;5.40;;;4.90;;
21868;SDS011;11099;41.564;23.296;2023-04-25T01:00:00;6.03;;;4.80;;
21868;SDS011;11099;41.564;23.296;2023-04-25T01:02:44;5.95;;;5.45;;
21868;SDS011;11099;41.564;23.296;2023-04-25T01:05:10;5.80;;;5.20;;
21868;SDS011;11099;41.564;23.296;2023-04-25T01:07:37;6.55;;;4.90;;
21868;SDS011;11099;41.564;23.296;2023-04-25T01:10:02;6.03;;;5.43;;
21868;SDS011;11099;41.564;23.296;2023-04-25T01:12:28;6.40;;;5.80;;
21868;SDS011;11099;41.564;23.296;2023-04-25T01:14:54;9.93;;;4.65;;
21868;SDS011;11099;41.564;23.296;2023-04-25T01:17:20;5.47;;;5.00;;
21868;SDS011;11099;41.564;23.296;2023-04-25T01:19:46;5.28;;;4.88;;
21868;SDS011;11099;41.564;23.296;2023-04-25T01:22:13;6.13;;;5.45;;
21868;SDS011;11099;41.564;23.296;2023-04-25T01:24:39;7.30;;;6.07;;
21868;SDS011;11099;41.564;23.296;2023-04-25T01:27:04;5.70;;;5.30;;
21868;SDS011;11099;41.564;23.296;2023-04-25T01:29:31;6.28;;;5.68;;
21868;SDS011;11099;41.564;23.296;2023-04-25T01:31:59;7.55;;;6.40;;
21868;SDS011;11099;41.564;23.296;2023-04-25T01:34:25;7.43;;;6.60;;
21868;SDS011;11099;41.564;23.296;2023-04-25T01:36:51;7.57;;;6.78;;
21868;SDS011;11099;41.564;23.296;2023-04-25T01:39:17;8.10;;;7.30;;
21868;SDS011;11099;41.564;23.296;2023-04-25T01:41:43;8.63;;;7.72;;
21868;SDS011;11099;41.564;23.296;2023-04-25T01:44:10;8.38;;;7.57;;
21868;SDS011;11099;41.564;23.296;2023-04-25T01:46:35;8.13;;;7.28;;
21868;SDS011;11099;41.564;23.296;2023-04-25T01:49:01;8.82;;;7.93;;
21868;SDS011;11099;41.564;23.296;2023-04-25T01:51:27;8.38;;;7.38;;
21868;SDS011;11099;41.564;23.296;2023-04-25T01:53:53;6.40;;;5.80;;
21868;SDS011;11099;41.564;23.296;2023-04-25T01:56:19;8.27;;;6.22;;
21868;SDS011;11099;41.564;23.296;2023-04-25T01:58:45;8.93;;;6.18;;
21868;SDS011;11099;41.564;23.296;2023-04-25T02:01:10;7.85;;;6.38;;
21868;SDS011;11099;41.564;23.296;2023-04-25T02:03:36;8.20;;;7.05;;
21868;SDS011;11099;41.564;23.296;2023-04-25T02:06:02;12.27;;;7.80;;
21868;SDS011;11099;41.564;23.296;2023-04-25T02:08:27;9.30;;;7.10;;
21868;SDS011;11099;41.564;23.296;2023-04-25T02:10:53;9.95;;;7.55;;
21868;SDS011;11099;41.564;23.296;2023-04-25T02:13:18;8.88;;;8.07;;
21868;SDS011;11099;41.564;23.296;2023-04-25T02:15:44;10.48;;;8.23;;
21868;SDS011;11099;41.564;23.296;2023-04-25T02:18:09;8.90;;;8.00;;
21868;SDS011;11099;41.564;23.296;2023-04-25T02:20:36;10.05;;;8.27;;
21868;SDS011;11099;41.564;23.296;2023-04-25T02:23:02;8.95;;;7.03;;
21868;SDS011;11099;41.564;23.296;2023-04-25T02:25:28;8.98;;;7.03;;
21868;SDS011;11099;41.564;23.296;2023-04-25T02:27:53;7.03;;;6.40;;
21868;SDS011;11099;41.564;23.296;2023-04-25T02:30:19;6.32;;;5.20;;
21868;SDS011;11099;41.564;23.296;2023-04-25T02:32:45;5.25;;;4.85;;
21868;SDS011;11099;41.564;23.296;2023-04-25T02:35:11;6.65;;;4.82;;
21868;SDS011;11099;41.564;23.296;2023-04-25T02:37:37;5.20;;;4.70;;
21868;SDS011;11099;41.564;23.296;2023-04-25T02:40:03;5.57;;;5.05;;
21868;SDS011;11099;41.564;23.296;2023-04-25T02:42:30;6.00;;;5.43;;
21868;SDS011;11099;41.564;23.296;2023-04-25T02:44:55;5.50;;;5.00;;
21868;SDS011;11099;41.564;23.296;2023-04-25T02:47:21;5.57;;;5.10;;
21868;SDS011;11099;41.564;23.296;2023-04-25T02:49:46;6.15;;;5.55;;
21868;SDS011;11099;41.564;23.296;2023-04-25T02:52:12;6.03;;;5.43;;
21868;SDS011;11099;41.564;23.296;2023-04-25T02:54:38;5.50;;;5.07;;
21868;SDS011;11099;41.564;23.296;2023-04-25T02:57:05;5.32;;;4.00;;
21868;SDS011;11099;41.564;23.296;2023-04-25T02:59:30;6.28;;;4.55;;
21868;SDS011;11099;41.564;23.296;2023-04-25T03:01:56;5.15;;;4.50;;
21868;SDS011;11099;41.564;23.296;2023-04-25T03:04:21;4.90;;;4.40;;
21868;SDS011;11099;41.564;23.296;2023-04-25T03:06:48;5.00;;;4.60;;
21868;SDS011;11099;41.564;23.296;2023-04-25T03:09:14;5.20;;;4.80;;
21868;SDS011;11099;41.564;23.296;2023-04-25T03:11:40;8.18;;;5.25;;
21868;SDS011;11099;41.564;23.296;2023-04-25T03:14:05;5.78;;;5.18;;
21868;SDS011;11099;41.564;23.296;2023-04-25T03:16:31;5.70;;;5.20;;
21868;SDS011;11099;41.564;23.296;2023-04-25T03:18:56;6.50;;;5.50;;
21868;SDS011;11099;41.564;23.296;2023-04-25T03:21:22;6.28;;;5.28;;
21868;SDS011;11099;41.564;23.296;2023-04-25T03:23:48;5.45;;;4.95;;
21868;SDS011;11099;41.564;23.296;2023-04-25T03:26:13;6.72;;;5.97;;
21868;SDS011;11099;41.564;23.296;2023-04-25T03:28:39;6.53;;;5.93;;
21868;SDS011;11099;41.564;23.296;2023-04-25T03:31:05;6.65;;;5.82;;
21868;SDS011;11099;41.564;23.296;2023-04-25T03:33:31;8.57;;;7.72;;
21868;SDS011;11099;41.564;23.296;2023-04-25T03:35:56;13.30;;;9.35;;
21868;SDS011;11099;41.564;23.296;2023-04-25T03:38:22;10.18;;;9.23;;
21868;SDS011;11099;41.564;23.296;2023-04-25T03:40:48;7.95;;;6.90;;
21868;SDS011;11099;41.564;23.296;2023-04-25T03:43:13;9.18;;;6.40;;
21868;SDS011;11099;41.564;23.296;2023-04-25T03:45:39;7.82;;;6.95;;
21868;SDS011;11099;41.564;23.296;2023-04-25T03:48:04;8.02;;;7.30;;
21868;SDS011;11099;41.564;23.296;2023-04-25T03:50:30;8.55;;;7.68;;
21868;SDS011;11099;41.564;23.296;2023-04-25T03:52:55;7.35;;;6.65;;
21868;SDS011;11099;41.564;23.296;2023-04-25T03:55:21;6.57;;;6.07;;
21868;SDS011;11099;41.564;23.296;2023-04-25T03:57:46;7.40;;;6.70;;
21868;SDS011;11099;41.564;23.296;2023-04-25T04:00:12;7.07;;;6.43;;
21868;SDS011;11099;41.564;23.296;2023-04-25T04:02:38;6.68;;;6.07;;
21868;SDS011;11099;41.564;23.296;2023-04-25T04:05:04;6.85;;;6.15;;
21868;SDS011;11099;41.564;23.296;2023-04-25T04:07:30;8.60;;;6.82;;
21868;SDS011;11099;41.564;23.296;2023-04-25T04:09:58;8.25;;;7.38;;
21868;SDS011;11099;41.564;23.296;2023-04-25T04:12:23;12.15;;;8.50;;
21868;SDS011;11099;41.564;23.296;2023-04-25T04:14:49;9.73;;;8.48;;
21868;SDS011;11099;41.564;23.296;2023-04-25T04:17:14;14.00;;;11.45;;
21868;SDS011;11099;41.564;23.296;2023-04-25T04:19:40;11.73;;;9.85;;
21868;SDS011;11099;41.564;23.296;2023-04-25T04:22:06;13.23;;;10.88;;
21868;SDS011;11099;41.564;23.296;2023-04-25T04:24:32;11.15;;;9.95;;
21868;SDS011;11099;41.564;23.296;2023-04-25T04:26:57;10.95;;;9.85;;
21868;SDS011;11099;41.564;23.296;2023-04-25T04:29:24;10.93;;;8.73;;
21868;SDS011;11099;41.564;23.296;2023-04-25T04:31:50;11.23;;;8.45;;
21868;SDS011;11099;41.564;23.296;2023-04-25T04:34:16;11.43;;;9.43;;
21868;SDS011;11099;41.564;23.296;2023-04-25T04:36:43;13.85;;;9.13;;
21868;SDS011;11099;41.564;23.296;2023-04-25T04:39:11;11.35;;;8.63;;
21868;SDS011;11099;41.564;23.296;2023-04-25T04:41:37;12.38;;;9.32;;
21868;SDS011;11099;41.564;23.296;2023-04-25T04:44:03;13.13;;;8.60;;
21868;SDS011;11099;41.564;23.296;2023-04-25T04:46:32;10.73;;;9.48;;
21868;SDS011;11099;41.564;23.296;2023-04-25T04:49:04;10.63;;;9.57;;
21868;SDS011;11099;41.564;23.296;2023-04-25T04:51:30;13.93;;;9.80;;
21868;SDS011;11099;41.564;23.296;2023-04-25T04:53:56;10.77;;;9.73;;
21868;SDS011;11099;41.564;23.296;2023-04-25T04:56:23;13.38;;;10.65;;
21868;SDS011;11099;41.564;23.296;2023-04-25T04:58:50;17.83;;;12.18;;
21868;SDS011;11099;41.564;23.296;2023-04-25T05:01:17;22.35;;;13.48;;
21868;SDS011;11099;41.564;23.296;2023-04-25T05:03:43;35.65;;;19.38;;
21868;SDS011;11099;41.564;23.296;2023-04-25T05:06:08;18.55;;;16.65;;
21868;SDS011;11099;41.564;23.296;2023-04-25T05:08:34;12.45;;;11.20;;
21868;SDS011;11099;41.564;23.296;2023-04-25T05:10:59;12.27;;;8.95;;
21868;SDS011;11099;41.564;23.296;2023-04-25T05:13:25;16.05;;;12.43;;
21868;SDS011;11099;41.564;23.296;2023-04-25T05:15:50;9.80;;;8.80;;
21868;SDS011;11099;41.564;23.296;2023-04-25T05:18:16;9.07;;;8.18;;
21868;SDS011;11099;41.564;23.296;2023-04-25T05:20:41;11.02;;;8.80;;
21868;SDS011;11099;41.564;23.296;2023-04-25T05:23:07;10.75;;;8.80;;
21868;SDS011;11099;41.564;23.296;2023-04-25T05:25:32;11.88;;;10.52;;
21868;SDS011;11099;41.564;23.296;2023-04-25T05:27:58;10.50;;;9.40;;
21868;SDS011;11099;41.564;23.296;2023-04-25T05:30:23;10.40;;;9.30;;
21868;SDS011;11099;41.564;23.296;2023-04-25T05:32:49;14.10;;;10.43;;
21868;SDS011;11099;41.564;23.296;2023-04-25T05:35:15;10.75;;;9.65;;
21868;SDS011;11099;41.564;23.296;2023-04-25T05:37:40;11.38;;;10.18;;
21868;SDS011;11099;41.564;23.296;2023-04-25T05:40:07;9.40;;;8.50;;
21868;SDS011;11099;41.564;23.296;2023-04-25T05:42:33;8.52;;;7.60;;
21868;SDS011;11099;41.564;23.296;2023-04-25T05:44:59;7.63;;;6.93;;
21868;SDS011;11099;41.564;23.296;2023-04-25T05:47:25;7.00;;;6.30;;
21868;SDS011;11099;41.564;23.296;2023-04-25T05:49:51;7.97;;;7.20;;
21868;SDS011;11099;41.564;23.296;2023-04-25T05:52:16;7.10;;;6.45;;
21868;SDS011;11099;41.564;23.296;2023-04-25T05:54:42;7.93;;;7.07;;
21868;SDS011;11099;41.564;23.296;2023-04-25T05:57:07;10.48;;;7.90;;
21868;SDS011;11099;41.564;23.296;2023-04-25T05:59:33;8.18;;;6.70;;
21868;SDS011;11099;41.564;23.296;2023-04-25T06:01:59;8.82;;;7.72;;
21868;SDS011;11099;41.564;23.296;2023-04-25T06:04:25;9.00;;;7.20;;
21868;SDS011;11099;41.564;23.296;2023-04-25T06:06:51;8.95;;;8.07;;
21868;SDS011;11099;41.564;23.296;2023-04-25T06:09:16;9.63;;;7.93;;
21868;SDS011;11099;41.564;23.296;2023-04-25T06:11:42;10.40;;;6.80;;
21868;SDS011;11099;41.564;23.296;2023-04-25T06:14:07;8.55;;;7.10;;
21868;SDS011;11099;41.564;23.296;2023-04-25T06:16:33;7.25;;;6.32;;
21868;SDS011;11099;41.564;23.296;2023-04-25T06:18:58;10.80;;;7.85;;
21868;SDS011;11099;41.564;23.296;2023-04-25T06:21:24;8.15;;;7.35;;
21868;SDS011;11099;41.564;23.296;2023-04-25T06:23:49;8.75;;;6.65;;
21868;SDS011;11099;41.564;23.296;2023-04-25T06:26:15;7.47;;;6.68;;
21868;SDS011;11099;41.564;23.296;2023-04-25T06:28:40;8.43;;;7.53;;
21868;SDS011;11099;41.564;23.296;2023-04-25T06:31:06;9.68;;;7.25;;
21868;SDS011;11099;41.564;23.296;2023-04-25T06:33:31;8.80;;;6.90;;
21868;SDS011;11099;41.564;23.296;2023-04-25T06:35:56;7.88;;;7.07;;
21868;SDS011;11099;41.564;23.296;2023-04-25T06:38:22;7.03;;;6.22;;
21868;SDS011;11099;41.564;23.296;2023-04-25T06:40:47;10.05;;;8.27;;
21868;SDS011;11099;41.564;23.296;2023-04-25T06:43:13;8.50;;;7.10;;
21868;SDS011;11099;41.564;23.296;2023-04-25T06:45:39;9.32;;;8.52;;
21868;SDS011;11099;41.564;23.296;2023-04-25T06:48:04;9.70;;;7.47;;
21868;SDS011;11099;41.564;23.296;2023-04-25T06:50:30;8.65;;;7.63;;
21868;SDS011;11099;41.564;23.296;2023-04-25T06:52:55;8.15;;;7.40;;
21868;SDS011;11099;41.564;23.296;2023-04-25T06:55:21;10.85;;;7.47;;
21868;SDS011;11099;41.564;23.296;2023-04-25T06:57:46;7.45;;;6.70;;
21868;SDS011;11099;41.564;23.296;2023-04-25T07:00:12;7.95;;;7.25;;
21868;SDS011;11099;41.564;23.296;2023-04-25T07:02:38;8.38;;;7.53;;
21868;SDS011;11099;41.564;23.296;2023-04-25T07:05:03;9.68;;;8.15;;
21868;SDS011;11099;41.564;23.296;2023-04-25T07:07:29;9.88;;;8.93;;
21868;SDS011;11099;41.564;23.296;2023-04-25T07:09:55;10.48;;;8.57;;
21868;SDS011;11099;41.564;23.296;2023-04-25T07:12:21;10.20;;;9.10;;
21868;SDS011;11099;41.564;23.296;2023-04-25T07:14:47;11.60;;;9.35;;
21868;SDS011;11099;41.564;23.296;2023-04-25T07:17:12;9.20;;;8.25;;
21868;SDS011;11099;41.564;23.296;2023-04-25T07:19:38;12.82;;;8.80;;
21868;SDS011;11099;41.564;23.296;2023-04-25T07:22:05;8.93;;;8.02;;
21868;SDS011;11099;41.564;23.296;2023-04-25T07:24:31;8.00;;;7.20;;
21868;SDS011;11099;41.564;23.296;2023-04-25T07:26:57;10.35;;;6.72;;
21868;SDS011;11099;41.564;23.296;2023-04-25T07:29:23;8.82;;;6.45;;
21868;SDS011;11099;41.564;23.296;2023-04-25T07:31:48;8.32;;;6.88;;
21868;SDS011;11099;41.564;23.296;2023-04-25T07:34:14;7.55;;;5.85;;
21868;SDS011;11099;41.564;23.296;2023-04-25T07:36:40;7.80;;;5.45;;
21868;SDS011;11099;41.564;23.296;2023-04-25T07:39:06;8.05;;;4.90;;
21868;SDS011;11099;41.564;23.296;2023-04-25T07:41:32;6.18;;;5.60;;
21868;SDS011;11099;41.564;23.296;2023-04-25T07:43:57;7.78;;;5.00;;
21868;SDS011;11099;41.564;23.296;2023-04-25T07:46:23;5.18;;;4.78;;
21868;SDS011;11099;41.564;23.296;2023-04-25T07:48:48;4.50;;;4.18;;
21868;SDS011;11099;41.564;23.296;2023-04-25T07:51:14;7.78;;;4.35;;
21868;SDS011;11099;41.564;23.296;2023-04-25T07:53:40;8.88;;;4.78;;
21868;SDS011;11099;41.564;23.296;2023-04-25T07:56:06;7.80;;;5.30;;
21868;SDS011;11099;41.564;23.296;2023-04-25T07:58:31;6.30;;;5.78;;
21868;SDS011;11099;41.564;23.296;2023-04-25T08:00:57;5.95;;;5.18;;
21868;SDS011;11099;41.564;23.296;2023-04-25T08:03:22;5.40;;;4.97;;
21868;SDS011;11099;41.564;23.296;2023-04-25T08:05:48;4.80;;;4.22;;
21868;SDS011;11099;41.564;23.296;2023-04-25T08:08:13;3.85;;;3.40;;
21868;SDS011;11099;41.564;23.296;2023-04-25T08:10:39;4.05;;;3.60;;
21868;SDS011;11099;41.564;23.296;2023-04-25T08:13:04;4.88;;;3.88;;
21868;SDS011;11099;41.564;23.296;2023-04-25T08:15:29;3.90;;;3.50;;
21868;SDS011;11099;41.564;23.296;2023-04-25T08:17:55;5.22;;;3.50;;
21868;SDS011;11099;41.564;23.296;2023-04-25T08:20:21;3.88;;;3.47;;
21868;SDS011;11099;41.564;23.296;2023-04-25T08:22:46;5.10;;;3.83;;
21868;SDS011;11099;41.564;23.296;2023-04-25T08:25:13;3.85;;;3.55;;
21868;SDS011;11099;41.564;23.296;2023-04-25T08:27:39;3.40;;;3.10;;
21868;SDS011;11099;41.564;23.296;2023-04-25T08:30:05;4.05;;;3.20;;
21868;SDS011;11099;41.564;23.296;2023-04-25T08:32:33;5.00;;;3.20;;
21868;SDS011;11099;41.564;23.296;2023-04-25T08:34:58;3.05;;;2.85;;
21868;SDS011;11099;41.564;23.296;2023-04-25T08:37:29;4.88;;;3.10;;
21868;SDS011;11099;41.564;23.296;2023-04-25T08:39:55;4.28;;;3.47;;
21868;SDS011;11099;41.564;23.296;2023-04-25T08:42:21;3.40;;;3.05;;
21868;SDS011;11099;41.564;23.296;2023-04-25T08:44:48;3.63;;;3.35;;
21868;SDS011;11099;41.564;23.296;2023-04-25T08:47:14;4.93;;;3.80;;
21868;SDS011;11099;41.564;23.296;2023-04-25T08:49:40;5.75;;;3.78;;
21868;SDS011;11099;41.564;23.296;2023-04-25T08:52:11;4.43;;;4.03;;
21868;SDS011;11099;41.564;23.296;2023-04-25T08:54:41;7.97;;;4.95;;
21868;SDS011;11099;41.564;23.296;2023-04-25T08:57:09;4.45;;;4.03;;
21868;SDS011;11099;41.564;23.296;2023-04-25T08:59:36;4.72;;;4.07;;
21868;SDS011;11099;41.564;23.296;2023-04-25T09:02:04;4.47;;;4.07;;
21868;SDS011;11099;41.564;23.296;2023-04-25T09:04:33;4.53;;;4.22;;
21868;SDS011;11099;41.564;23.296;2023-04-25T09:06:58;8.38;;;4.20;;
21868;SDS011;11099;41.564;23.296;2023-04-25T09:09:24;4.78;;;4.20;;
21868;SDS011;11099;41.564;23.296;2023-04-25T09:11:50;3.42;;;3.10;;
21868;SDS011;11099;41.564;23.296;2023-04-25T09:14:19;5.18;;;3.90;;
21868;SDS011;11099;41.564;23.296;2023-04-25T09:19:28;4.97;;;4.25;;
21868;SDS011;11099;41.564;23.296;2023-04-25T09:21:54;3.78;;;3.40;;
21868;SDS011;11099;41.564;23.296;2023-04-25T09:24:37;4.40;;;3.33;;
21868;SDS011;11099;41.564;23.296;2023-04-25T09:27:11;3.88;;;3.60;;
21868;SDS011;11099;41.564;23.296;2023-04-25T09:29:39;4.07;;;3.78;;
21868;SDS011;11099;41.564;23.296;2023-04-25T09:34:53;4.15;;;3.33;;
21868;SDS011;11099;41.564;23.296;2023-04-25T09:39:58;3.60;;;2.75;;
21868;SDS011;11099;41.564;23.296;2023-04-25T09:42:28;2.50;;;2.30;;
21868;SDS011;11099;41.564;23.296;2023-04-25T09:44:56;2.13;;;2.03;;
21868;SDS011;11099;41.564;23.296;2023-04-25T09:47:23;3.10;;;2.78;;
21868;SDS011;11099;41.564;23.296;2023-04-25T09:49:52;2.75;;;2.55;;
21868;SDS011;11099;41.564;23.296;2023-04-25T09:52:19;4.70;;;2.90;;
21868;SDS011;11099;41.564;23.296;2023-04-25T09:54:46;2.70;;;2.47;;
21868;SDS011;11099;41.564;23.296;2023-04-25T09:57:16;2.85;;;2.40;;
21868;SDS011;11099;41.564;23.296;2023-04-25T09:59:44;2.47;;;2.28;;
21868;SDS011;11099;41.564;23.296;2023-04-25T10:02:11;3.38;;;3.00;;
21868;SDS011;11099;41.564;23.296;2023-04-25T10:04:37;3.22;;;3.03;;
21868;SDS011;11099;41.564;23.296;2023-04-25T10:07:07;7.07;;;3.47;;
21868;SDS011;11099;41.564;23.296;2023-04-25T10:09:33;3.40;;;3.10;;
21868;SDS011;11099;41.564;23.296;2023-04-25T10:12:03;3.38;;;2.88;;
21868;SDS011;11099;41.564;23.296;2023-04-25T10:14:31;3.13;;;2.80;;
21868;SDS011;11099;41.564;23.296;2023-04-25T10:16:57;4.30;;;2.72;;
21868;SDS011;11099;41.564;23.296;2023-04-25T10:19:24;5.38;;;3.33;;
21868;SDS011;11099;41.564;23.296;2023-04-25T10:22:07;3.50;;;2.38;;
21868;SDS011;11099;41.564;23.296;2023-04-25T10:24:38;7.70;;;2.78;;
21868;SDS011;11099;41.564;23.296;2023-04-25T10:27:05;2.72;;;2.55;;
21868;SDS011;11099;41.564;23.296;2023-04-25T10:29:32;2.67;;;2.47;;
21868;SDS011;11099;41.564;23.296;2023-04-25T10:31:57;3.15;;;2.60;;
21868;SDS011;11099;41.564;23.296;2023-04-25T10:34:23;2.85;;;2.65;;
21868;SDS011;11099;41.564;23.296;2023-04-25T10:37:03;3.95;;;2.95;;
21868;SDS011;11099;41.564;23.296;2023-04-25T10:39:29;4.00;;;3.33;;
21868;SDS011;11099;41.564;23.296;2023-04-25T10:41:58;9.57;;;3.67;;
21868;SDS011;11099;41.564;23.296;2023-04-25T10:44:30;5.72;;;3.45;;
21868;SDS011;11099;41.564;23.296;2023-04-25T10:46:57;2.83;;;2.60;;
21868;SDS011;11099;41.564;23.296;2023-04-25T10:49:28;3.55;;;3.25;;
21868;SDS011;11099;41.564;23.296;2023-04-25T10:54:51;3.95;;;2.67;;
21868;SDS011;11099;41.564;23.296;2023-04-25T10:57:31;3.00;;;2.70;;
21868;SDS011;11099;41.564;23.296;2023-04-25T11:02:44;6.03;;;2.20;;
21868;SDS011;11099;41.564;23.296;2023-04-25T11:07:59;2.92;;;2.72;;
21868;SDS011;11099;41.564;23.296;2023-04-25T11:10:26;4.70;;;3.60;;
21868;SDS011;11099;41.564;23.296;2023-04-25T11:12:54;4.63;;;3.30;;
21868;SDS011;11099;41.564;23.296;2023-04-25T11:15:20;5.40;;;4.05;;
21868;SDS011;11099;41.564;23.296;2023-04-25T11:17:46;4.90;;;4.50;;
21868;SDS011;11099;41.564;23.296;2023-04-25T11:20:12;6.75;;;4.03;;
21868;SDS011;11099;41.564;23.296;2023-04-25T11:22:38;2.55;;;2.15;;
21868;SDS011;11099;41.564;23.296;2023-04-25T11:25:08;2.42;;;2.15;;
21868;SDS011;11099;41.564;23.296;2023-04-25T11:27:54;2.92;;;2.60;;
21868;SDS011;11099;41.564;23.296;2023-04-25T11:30:24;4.10;;;1.60;;
21868;SDS011;11099;41.564;23.296;2023-04-25T11:32:50;2.10;;;1.90;;
21868;SDS011;11099;41.564;23.296;2023-04-25T11:35:19;2.08;;;1.50;;
21868;SDS011;11099;41.564;23.296;2023-04-25T11:37:47;0.80;;;0.80;;
21868;SDS011;11099;41.564;23.296;2023-04-25T11:40:13;0.77;;;0.77;;
21868;SDS011;11099;41.564;23.296;2023-04-25T11:42:43;1.10;;;1.10;;
21868;SDS011;11099;41.564;23.296;2023-04-25T11:45:11;3.45;;;2.33;;
21868;SDS011;11099;41.564;23.296;2023-04-25T11:47:38;1.50;;;1.40;;
21868;SDS011;11099;41.564;23.296;2023-04-25T11:50:04;2.63;;;0.93;;
21868;SDS011;11099;41.564;23.296;2023-04-25T11:52:39;2.20;;;0.80;;
21868;SDS011;11099;41.564;23.296;2023-04-25T11:55:08;0.70;;;0.70;;
21868;SDS011;11099;41.564;23.296;2023-04-25T11:57:45;2.97;;;2.15;;
21868;SDS011;11099;41.564;23.296;2023-04-25T12:00:17;3.20;;;2.90;;
21868;SDS011;11099;41.564;23.296;2023-04-25T12:05:16;1.98;;;1.30;;
21868;SDS011;11099;41.564;23.296;2023-04-25T12:07:42;0.77;;;0.77;;
21868;SDS011;11099;41.564;23.296;2023-04-25T12:10:11;2.15;;;0.60;;
21868;SDS011;11099;41.564;23.296;2023-04-25T12:12:38;1.52;;;0.80;;
21868;SDS011;11099;41.564;23.296;2023-04-25T12:17:48;0.80;;;0.80;;
21868;SDS011;11099;41.564;23.296;2023-04-25T12:20:16;0.70;;;0.70;;
21868;SDS011;11099;41.564;23.296;2023-04-25T12:22:46;1.48;;;1.13;;
21868;SDS011;11099;41.564;23.296;2023-04-25T12:25:20;1.67;;;1.02;;
21868;SDS011;11099;41.564;23.296;2023-04-25T12:28:13;1.23;;;1.13;;
21868;SDS011;11099;41.564;23.296;2023-04-25T12:30:54;2.63;;;1.83;;
21868;SDS011;11099;41.564;23.296;2023-04-25T12:33:20;1.80;;;1.70;;
21868;SDS011;11099;41.564;23.296;2023-04-25T12:35:46;2.15;;;2.00;;
21868;SDS011;11099;41.564;23.296;2023-04-25T12:38:20;5.45;;;1.42;;
21868;SDS011;11099;41.564;23.296;2023-04-25T12:40:46;1.77;;;1.35;;
21868;SDS011;11099;41.564;23.296;2023-04-25T12:43:12;6.20;;;1.60;;
21868;SDS011;11099;41.564;23.296;2023-04-25T12:45:37;2.28;;;2.05;;
21868;SDS011;11099;41.564;23.296;2023-04-25T12:48:02;5.55;;;2.80;;
21868;SDS011;11099;41.564;23.296;2023-04-25T12:50:28;3.58;;;1.52;;
21868;SDS011;11099;41.564;23.296;2023-04-25T12:52:53;3.35;;;2.08;;
21868;SDS011;11099;41.564;23.296;2023-04-25T12:55:19;2.92;;;1.63;;
21868;SDS011;11099;41.564;23.296;2023-04-25T12:57:44;1.65;;;1.30;;
21868;SDS011;11099;41.564;23.296;2023-04-25T13:00:10;1.17;;;1.02;;
21868;SDS011;11099;41.564;23.296;2023-04-25T13:02:39;1.50;;;1.00;;
21868;SDS011;11099;41.564;23.296;2023-04-25T13:05:06;4.38;;;3.33;;
21868;SDS011;11099;41.564;23.296;2023-04-25T13:07:32;3.25;;;1.58;;
21868;SDS011;11099;41.564;23.296;2023-04-25T13:09:57;1.60;;;1.50;;
21868;SDS011;11099;41.564;23.296;2023-04-25T13:12:24;5.15;;;3.35;;
21868;SDS011;11099;41.564;23.296;2023-04-25T13:14:49;3.28;;;3.08;;
21868;SDS011;11099;41.564;23.296;2023-04-25T13:17:15;2.17;;;1.35;;
21868;SDS011;11099;41.564;23.296;2023-04-25T13:19:40;5.88;;;3.33;;
21868;SDS011;11099;41.564;23.296;2023-04-25T13:22:05;2.50;;;2.30;;
21868;SDS011;11099;41.564;23.296;2023-04-25T13:24:31;2.50;;;1.98;;
21868;SDS011;11099;41.564;23.296;2023-04-25T13:26:56;4.35;;;3.75;;
21868;SDS011;11099;41.564;23.296;2023-04-25T13:29:22;3.17;;;2.28;;
21868;SDS011;11099;41.564;23.296;2023-04-25T13:31:48;2.53;;;1.90;;
21868;SDS011;11099;41.564;23.296;2023-04-25T13:34:13;2.50;;;2.30;;
21868;SDS011;11099;41.564;23.296;2023-04-25T13:36:39;0.55;;;0.40;;
21868;SDS011;11099;41.564;23.296;2023-04-25T13:39:04;1.33;;;1.23;;
21868;SDS011;11099;41.564;23.296;2023-04-25T13:41:30;1.35;;;0.88;;
21868;SDS011;11099;41.564;23.296;2023-04-25T13:43:55;1.73;;;0.60;;
21868;SDS011;11099;41.564;23.296;2023-04-25T13:46:21;0.73;;;0.73;;
21868;SDS011;11099;41.564;23.296;2023-04-25T13:48:46;1.83;;;1.60;;
21868;SDS011;11099;41.564;23.296;2023-04-25T13:51:14;1.45;;;1.30;;
21868;SDS011;11099;41.564;23.296;2023-04-25T13:53:40;0.80;;;0.80;;
21868;SDS011;11099;41.564;23.296;2023-04-25T13:56:06;1.60;;;1.50;;
21868;SDS011;11099;41.564;23.296;2023-04-25T13:58:31;1.33;;;0.50;;
21868;SDS011;11099;41.564;23.296;2023-04-25T14:00:58;2.10;;;1.95;;
21868;SDS011;11099;41.564;23.296;2023-04-25T14:03:23;0.60;;;0.60;;
21868;SDS011;11099;41.564;23.296;2023-04-25T14:05:49;1.48;;;1.13;;
21868;SDS011;11099;41.564;23.296;2023-04-25T14:08:16;0.50;;;0.50;;
21868;SDS011;11099;41.564;23.296;2023-04-25T14:10:41;0.93;;;0.80;;
21868;SDS011;11099;41.564;23.296;2023-04-25T14:13:06;1.23;;;0.77;;
21868;SDS011;11099;41.564;23.296;2023-04-25T14:15:32;1.80;;;0.90;;
21868;SDS011;11099;41.564;23.296;2023-04-25T14:17:59;2.25;;;0.70;;
21868;SDS011;11099;41.564;23.296;2023-04-25T14:20:25;0.88;;;0.80;;
21868;SDS011;11099;41.564;23.296;2023-04-25T14:22:51;1.98;;;0.80;;
21868;SDS011;11099;41.564;23.296;2023-04-25T14:25:19;1.33;;;1.30;;
21868;SDS011;11099;41.564;23.296;2023-04-25T14:27:45;1.98;;;1.40;;
21868;SDS011;11099;41.564;23.296;2023-04-25T14:30:14;2.22;;;1.20;;
21868;SDS011;11099;41.564;23.296;2023-04-25T14:32:41;3.97;;;1.13;;
21868;SDS011;11099;41.564;23.296;2023-04-25T14:35:06;1.23;;;1.02;;
21868;SDS011;11099;41.564;23.296;2023-04-25T14:37:32;1.40;;;1.30;;
21868;SDS011;11099;41.564;23.296;2023-04-25T14:39:58;4.03;;;3.65;;
21868;SDS011;11099;41.564;23.296;2023-04-25T14:42:23;14.25;;;8.55;;
21868;SDS011;11099;41.564;23.296;2023-04-25T14:44:48;4.20;;;2.40;;
21868;SDS011;11099;41.564;23.296;2023-04-25T14:47:14;2.10;;;1.85;;
21868;SDS011;11099;41.564;23.296;2023-04-25T14:49:41;1.42;;;1.33;;
21868;SDS011;11099;41.564;23.296;2023-04-25T14:52:06;2.08;;;1.55;;